<?xml version="1.0" encoding="UTF-8" standalone="no" ?>
<gpx xmlns="http://www.topografix.com/GPX/1/1" xmlns:xsi="http://www.w3.org/2001/XMLSchema-instance" xsi:schemaLocation="http://www.topografix.com/GPX/1/1 http://www.topografix.com/GPX/1/1/gpx.xsd" version="1.1" creator="VisuGPX - https://www.visugpx.com">
  <metadata>
    <name>demoiselles 23km</name>
    <desc><![CDATA[Départ de la faisanderie
dénivelé positif 480m   distance 23 km]]></desc>
  </metadata>
  <trk>
    <name><![CDATA[demoiselles 23km]]></name>
    <trkseg>
      <trkpt lat="48.40375" lon="2.67795">
        <ele>82</ele>
        <time>2021-09-12T14:21:46Z</time>
      </trkpt>
      <trkpt lat="48.40369" lon="2.67716">
        <ele>81</ele>
        <time>2021-09-12T14:21:51Z</time>
      </trkpt>
      <trkpt lat="48.40398" lon="2.67637">
        <ele>81</ele>
        <time>2021-09-12T14:21:56Z</time>
      </trkpt>
      <trkpt lat="48.40333" lon="2.67579">
        <ele>81</ele>
        <time>2021-09-12T14:22:01Z</time>
      </trkpt>
      <trkpt lat="48.40281" lon="2.676">
        <ele>82</ele>
        <time>2021-09-12T14:22:06Z</time>
      </trkpt>
      <trkpt lat="48.40299" lon="2.67474">
        <ele>81</ele>
        <time>2021-09-12T14:22:11Z</time>
      </trkpt>
      <trkpt lat="48.40251" lon="2.67534">
        <ele>82</ele>
        <time>2021-09-12T14:22:16Z</time>
      </trkpt>
      <trkpt lat="48.40194" lon="2.67495">
        <ele>83</ele>
        <time>2021-09-12T14:22:21Z</time>
      </trkpt>
      <trkpt lat="48.40134" lon="2.67418">
        <ele>82</ele>
        <time>2021-09-12T14:22:26Z</time>
      </trkpt>
      <trkpt lat="48.40044" lon="2.67433">
        <ele>82</ele>
        <time>2021-09-12T14:22:31Z</time>
      </trkpt>
      <trkpt lat="48.39958" lon="2.67407">
        <ele>83</ele>
        <time>2021-09-12T14:22:36Z</time>
      </trkpt>
      <trkpt lat="48.39986" lon="2.67319">
        <ele>80</ele>
        <time>2021-09-12T14:22:41Z</time>
      </trkpt>
      <trkpt lat="48.40053" lon="2.67302">
        <ele>82</ele>
        <time>2021-09-12T14:22:46Z</time>
      </trkpt>
      <trkpt lat="48.40019" lon="2.67282">
        <ele>80</ele>
        <time>2021-09-12T14:22:51Z</time>
      </trkpt>
      <trkpt lat="48.39971" lon="2.6724">
        <ele>81</ele>
        <time>2021-09-12T14:22:56Z</time>
      </trkpt>
      <trkpt lat="48.39959" lon="2.67136">
        <ele>84</ele>
        <time>2021-09-12T14:23:01Z</time>
      </trkpt>
      <trkpt lat="48.39985" lon="2.671">
        <ele>84</ele>
        <time>2021-09-12T14:23:06Z</time>
      </trkpt>
      <trkpt lat="48.3994" lon="2.67">
        <ele>89</ele>
        <time>2021-09-12T14:23:11Z</time>
      </trkpt>
      <trkpt lat="48.39899" lon="2.6694">
        <ele>94</ele>
        <time>2021-09-12T14:23:16Z</time>
      </trkpt>
      <trkpt lat="48.39886" lon="2.66883">
        <ele>97</ele>
        <time>2021-09-12T14:23:21Z</time>
      </trkpt>
      <trkpt lat="48.39854" lon="2.66874">
        <ele>103</ele>
        <time>2021-09-12T14:23:26Z</time>
      </trkpt>
      <trkpt lat="48.39831" lon="2.6689">
        <ele>106</ele>
        <time>2021-09-12T14:23:31Z</time>
      </trkpt>
      <trkpt lat="48.39805" lon="2.66891">
        <ele>111</ele>
        <time>2021-09-12T14:23:36Z</time>
      </trkpt>
      <trkpt lat="48.39796" lon="2.66926">
        <ele>111</ele>
        <time>2021-09-12T14:23:41Z</time>
      </trkpt>
      <trkpt lat="48.3977" lon="2.66913">
        <ele>117</ele>
        <time>2021-09-12T14:23:46Z</time>
      </trkpt>
      <trkpt lat="48.39758" lon="2.6688">
        <ele>119</ele>
        <time>2021-09-12T14:23:51Z</time>
      </trkpt>
      <trkpt lat="48.39731" lon="2.6688">
        <ele>118</ele>
        <time>2021-09-12T14:23:56Z</time>
      </trkpt>
      <trkpt lat="48.39748" lon="2.66842">
        <ele>121</ele>
        <time>2021-09-12T14:24:01Z</time>
      </trkpt>
      <trkpt lat="48.39772" lon="2.66792">
        <ele>116</ele>
        <time>2021-09-12T14:24:06Z</time>
      </trkpt>
      <trkpt lat="48.39787" lon="2.66755">
        <ele>114</ele>
        <time>2021-09-12T14:24:11Z</time>
      </trkpt>
      <trkpt lat="48.39802" lon="2.66736">
        <ele>114</ele>
        <time>2021-09-12T14:24:16Z</time>
      </trkpt>
      <trkpt lat="48.39802" lon="2.6669">
        <ele>114</ele>
        <time>2021-09-12T14:24:21Z</time>
      </trkpt>
      <trkpt lat="48.39772" lon="2.66712">
        <ele>115</ele>
        <time>2021-09-12T14:24:26Z</time>
      </trkpt>
      <trkpt lat="48.3975" lon="2.66684">
        <ele>114</ele>
        <time>2021-09-12T14:24:31Z</time>
      </trkpt>
      <trkpt lat="48.39727" lon="2.66668">
        <ele>111</ele>
        <time>2021-09-12T14:24:36Z</time>
      </trkpt>
      <trkpt lat="48.39683" lon="2.66694">
        <ele>105</ele>
        <time>2021-09-12T14:24:41Z</time>
      </trkpt>
      <trkpt lat="48.39633" lon="2.66688">
        <ele>100</ele>
        <time>2021-09-12T14:24:46Z</time>
      </trkpt>
      <trkpt lat="48.39574" lon="2.66681">
        <ele>96</ele>
        <time>2021-09-12T14:24:51Z</time>
      </trkpt>
      <trkpt lat="48.39507" lon="2.66664">
        <ele>94</ele>
        <time>2021-09-12T14:24:56Z</time>
      </trkpt>
      <trkpt lat="48.39437" lon="2.66719">
        <ele>91</ele>
        <time>2021-09-12T14:25:01Z</time>
      </trkpt>
      <trkpt lat="48.39364" lon="2.66766">
        <ele>89</ele>
        <time>2021-09-12T14:25:06Z</time>
      </trkpt>
      <trkpt lat="48.39234" lon="2.66805">
        <ele>86</ele>
        <time>2021-09-12T14:25:11Z</time>
      </trkpt>
      <trkpt lat="48.39187" lon="2.66954">
        <ele>82</ele>
        <time>2021-09-12T14:25:16Z</time>
      </trkpt>
      <trkpt lat="48.39161" lon="2.67082">
        <ele>81</ele>
        <time>2021-09-12T14:25:21Z</time>
      </trkpt>
      <trkpt lat="48.39128" lon="2.6714">
        <ele>79</ele>
        <time>2021-09-12T14:25:26Z</time>
      </trkpt>
      <trkpt lat="48.39121" lon="2.67212">
        <ele>78</ele>
        <time>2021-09-12T14:25:31Z</time>
      </trkpt>
      <trkpt lat="48.39109" lon="2.67382">
        <ele>78</ele>
        <time>2021-09-12T14:25:36Z</time>
      </trkpt>
      <trkpt lat="48.39085" lon="2.67583">
        <ele>76</ele>
        <time>2021-09-12T14:25:41Z</time>
      </trkpt>
      <trkpt lat="48.39109" lon="2.67654">
        <ele>79</ele>
        <time>2021-09-12T14:25:46Z</time>
      </trkpt>
      <trkpt lat="48.39116" lon="2.67748">
        <ele>80</ele>
        <time>2021-09-12T14:25:51Z</time>
      </trkpt>
      <trkpt lat="48.39109" lon="2.67831">
        <ele>79</ele>
        <time>2021-09-12T14:25:56Z</time>
      </trkpt>
      <trkpt lat="48.39095" lon="2.67923">
        <ele>78</ele>
        <time>2021-09-12T14:26:01Z</time>
      </trkpt>
      <trkpt lat="48.38827" lon="2.67783">
        <ele>83</ele>
        <time>2021-09-12T14:26:06Z</time>
      </trkpt>
      <trkpt lat="48.38802" lon="2.67904">
        <ele>85</ele>
        <time>2021-09-12T14:26:11Z</time>
      </trkpt>
      <trkpt lat="48.3881" lon="2.67973">
        <ele>83</ele>
        <time>2021-09-12T14:26:16Z</time>
      </trkpt>
      <trkpt lat="48.38774" lon="2.68016">
        <ele>87</ele>
        <time>2021-09-12T14:26:21Z</time>
      </trkpt>
      <trkpt lat="48.38783" lon="2.68077">
        <ele>84</ele>
        <time>2021-09-12T14:26:26Z</time>
      </trkpt>
      <trkpt lat="48.3877" lon="2.68178">
        <ele>84</ele>
        <time>2021-09-12T14:26:31Z</time>
      </trkpt>
      <trkpt lat="48.38715" lon="2.68177">
        <ele>93</ele>
        <time>2021-09-12T14:26:36Z</time>
      </trkpt>
      <trkpt lat="48.38669" lon="2.68183">
        <ele>102</ele>
        <time>2021-09-12T14:26:41Z</time>
      </trkpt>
      <trkpt lat="48.38625" lon="2.68181">
        <ele>102</ele>
        <time>2021-09-12T14:26:46Z</time>
      </trkpt>
      <trkpt lat="48.38588" lon="2.68168">
        <ele>103</ele>
        <time>2021-09-12T14:26:51Z</time>
      </trkpt>
      <trkpt lat="48.386" lon="2.68146">
        <ele>104</ele>
        <time>2021-09-12T14:26:56Z</time>
      </trkpt>
      <trkpt lat="48.38614" lon="2.6809">
        <ele>107</ele>
        <time>2021-09-12T14:27:01Z</time>
      </trkpt>
      <trkpt lat="48.38626" lon="2.68072">
        <ele>107</ele>
        <time>2021-09-12T14:27:06Z</time>
      </trkpt>
      <trkpt lat="48.38657" lon="2.68035">
        <ele>108</ele>
        <time>2021-09-12T14:27:11Z</time>
      </trkpt>
      <trkpt lat="48.38621" lon="2.68022">
        <ele>109</ele>
        <time>2021-09-12T14:27:16Z</time>
      </trkpt>
      <trkpt lat="48.38621" lon="2.67967">
        <ele>109</ele>
        <time>2021-09-12T14:27:21Z</time>
      </trkpt>
      <trkpt lat="48.38621" lon="2.67924">
        <ele>109</ele>
        <time>2021-09-12T14:27:26Z</time>
      </trkpt>
      <trkpt lat="48.38643" lon="2.67875">
        <ele>111</ele>
        <time>2021-09-12T14:27:31Z</time>
      </trkpt>
      <trkpt lat="48.38658" lon="2.67849">
        <ele>113</ele>
        <time>2021-09-12T14:27:36Z</time>
      </trkpt>
      <trkpt lat="48.38634" lon="2.67835">
        <ele>112</ele>
        <time>2021-09-12T14:27:41Z</time>
      </trkpt>
      <trkpt lat="48.38647" lon="2.67819">
        <ele>114</ele>
        <time>2021-09-12T14:27:46Z</time>
      </trkpt>
      <trkpt lat="48.38657" lon="2.67796">
        <ele>115</ele>
        <time>2021-09-12T14:27:51Z</time>
      </trkpt>
      <trkpt lat="48.38644" lon="2.67774">
        <ele>114</ele>
        <time>2021-09-12T14:27:56Z</time>
      </trkpt>
      <trkpt lat="48.38645" lon="2.67751">
        <ele>115</ele>
        <time>2021-09-12T14:28:01Z</time>
      </trkpt>
      <trkpt lat="48.38644" lon="2.67728">
        <ele>114</ele>
        <time>2021-09-12T14:28:06Z</time>
      </trkpt>
      <trkpt lat="48.38642" lon="2.67723">
        <ele>114</ele>
        <time>2021-09-12T14:28:11Z</time>
      </trkpt>
      <trkpt lat="48.38661" lon="2.67697">
        <ele>116</ele>
        <time>2021-09-12T14:28:16Z</time>
      </trkpt>
      <trkpt lat="48.38657" lon="2.67662">
        <ele>115</ele>
        <time>2021-09-12T14:28:21Z</time>
      </trkpt>
      <trkpt lat="48.38643" lon="2.67639">
        <ele>113</ele>
        <time>2021-09-12T14:28:26Z</time>
      </trkpt>
      <trkpt lat="48.38636" lon="2.67613">
        <ele>112</ele>
        <time>2021-09-12T14:28:31Z</time>
      </trkpt>
      <trkpt lat="48.38629" lon="2.67568">
        <ele>110</ele>
        <time>2021-09-12T14:28:36Z</time>
      </trkpt>
      <trkpt lat="48.3862" lon="2.67535">
        <ele>107</ele>
        <time>2021-09-12T14:28:41Z</time>
      </trkpt>
      <trkpt lat="48.38615" lon="2.67512">
        <ele>105</ele>
        <time>2021-09-12T14:28:46Z</time>
      </trkpt>
      <trkpt lat="48.38586" lon="2.67472">
        <ele>100</ele>
        <time>2021-09-12T14:28:51Z</time>
      </trkpt>
      <trkpt lat="48.38567" lon="2.67444">
        <ele>100</ele>
        <time>2021-09-12T14:28:56Z</time>
      </trkpt>
      <trkpt lat="48.38482" lon="2.67459">
        <ele>107</ele>
        <time>2021-09-12T14:29:01Z</time>
      </trkpt>
      <trkpt lat="48.38435" lon="2.67453">
        <ele>115</ele>
        <time>2021-09-12T14:29:06Z</time>
      </trkpt>
      <trkpt lat="48.38245" lon="2.67488">
        <ele>128</ele>
        <time>2021-09-12T14:29:11Z</time>
      </trkpt>
      <trkpt lat="48.38143" lon="2.67689">
        <ele>118</ele>
        <time>2021-09-12T14:29:16Z</time>
      </trkpt>
      <trkpt lat="48.37977" lon="2.67742">
        <ele>107</ele>
        <time>2021-09-12T14:29:21Z</time>
      </trkpt>
      <trkpt lat="48.37892" lon="2.6822">
        <ele>92</ele>
        <time>2021-09-12T14:29:26Z</time>
      </trkpt>
      <trkpt lat="48.37872" lon="2.68194">
        <ele>94</ele>
        <time>2021-09-12T14:29:31Z</time>
      </trkpt>
      <trkpt lat="48.37878" lon="2.68162">
        <ele>95</ele>
        <time>2021-09-12T14:29:36Z</time>
      </trkpt>
      <trkpt lat="48.37855" lon="2.68117">
        <ele>98</ele>
        <time>2021-09-12T14:29:41Z</time>
      </trkpt>
      <trkpt lat="48.37859" lon="2.68049">
        <ele>102</ele>
        <time>2021-09-12T14:29:46Z</time>
      </trkpt>
      <trkpt lat="48.37842" lon="2.68029">
        <ele>104</ele>
        <time>2021-09-12T14:29:51Z</time>
      </trkpt>
      <trkpt lat="48.37831" lon="2.68002">
        <ele>107</ele>
        <time>2021-09-12T14:29:56Z</time>
      </trkpt>
      <trkpt lat="48.37805" lon="2.67993">
        <ele>106</ele>
        <time>2021-09-12T14:30:01Z</time>
      </trkpt>
      <trkpt lat="48.37796" lon="2.67981">
        <ele>106</ele>
        <time>2021-09-12T14:30:06Z</time>
      </trkpt>
      <trkpt lat="48.37798" lon="2.6796">
        <ele>108</ele>
        <time>2021-09-12T14:30:11Z</time>
      </trkpt>
      <trkpt lat="48.37814" lon="2.67947">
        <ele>112</ele>
        <time>2021-09-12T14:30:16Z</time>
      </trkpt>
      <trkpt lat="48.37816" lon="2.67918">
        <ele>115</ele>
        <time>2021-09-12T14:30:21Z</time>
      </trkpt>
      <trkpt lat="48.37826" lon="2.67915">
        <ele>117</ele>
        <time>2021-09-12T14:30:26Z</time>
      </trkpt>
      <trkpt lat="48.37836" lon="2.67893">
        <ele>119</ele>
        <time>2021-09-12T14:30:31Z</time>
      </trkpt>
      <trkpt lat="48.37847" lon="2.67911">
        <ele>117</ele>
        <time>2021-09-12T14:30:36Z</time>
      </trkpt>
      <trkpt lat="48.37853" lon="2.67884">
        <ele>117</ele>
        <time>2021-09-12T14:30:41Z</time>
      </trkpt>
      <trkpt lat="48.37862" lon="2.67866">
        <ele>117</ele>
        <time>2021-09-12T14:30:46Z</time>
      </trkpt>
      <trkpt lat="48.37856" lon="2.67837">
        <ele>120</ele>
        <time>2021-09-12T14:30:51Z</time>
      </trkpt>
      <trkpt lat="48.37867" lon="2.67827">
        <ele>119</ele>
        <time>2021-09-12T14:30:56Z</time>
      </trkpt>
      <trkpt lat="48.37867" lon="2.678">
        <ele>120</ele>
        <time>2021-09-12T14:31:01Z</time>
      </trkpt>
      <trkpt lat="48.37852" lon="2.67786">
        <ele>122</ele>
        <time>2021-09-12T14:31:06Z</time>
      </trkpt>
      <trkpt lat="48.37862" lon="2.67755">
        <ele>122</ele>
        <time>2021-09-12T14:31:11Z</time>
      </trkpt>
      <trkpt lat="48.37843" lon="2.67732">
        <ele>125</ele>
        <time>2021-09-12T14:31:16Z</time>
      </trkpt>
      <trkpt lat="48.37842" lon="2.67687">
        <ele>127</ele>
        <time>2021-09-12T14:31:21Z</time>
      </trkpt>
      <trkpt lat="48.37828" lon="2.67629">
        <ele>128</ele>
        <time>2021-09-12T14:31:26Z</time>
      </trkpt>
      <trkpt lat="48.378" lon="2.6754">
        <ele>129</ele>
        <time>2021-09-12T14:31:31Z</time>
      </trkpt>
      <trkpt lat="48.37815" lon="2.67541">
        <ele>129</ele>
        <time>2021-09-12T14:31:36Z</time>
      </trkpt>
      <trkpt lat="48.37838" lon="2.67576">
        <ele>129</ele>
        <time>2021-09-12T14:31:41Z</time>
      </trkpt>
      <trkpt lat="48.37866" lon="2.67599">
        <ele>126</ele>
        <time>2021-09-12T14:31:46Z</time>
      </trkpt>
      <trkpt lat="48.37896" lon="2.67589">
        <ele>124</ele>
        <time>2021-09-12T14:31:51Z</time>
      </trkpt>
      <trkpt lat="48.37908" lon="2.67627">
        <ele>121</ele>
        <time>2021-09-12T14:31:56Z</time>
      </trkpt>
      <trkpt lat="48.37935" lon="2.67584">
        <ele>119</ele>
        <time>2021-09-12T14:32:01Z</time>
      </trkpt>
      <trkpt lat="48.37952" lon="2.67551">
        <ele>119</ele>
        <time>2021-09-12T14:32:06Z</time>
      </trkpt>
      <trkpt lat="48.37971" lon="2.67506">
        <ele>120</ele>
        <time>2021-09-12T14:32:11Z</time>
      </trkpt>
      <trkpt lat="48.37966" lon="2.67452">
        <ele>122</ele>
        <time>2021-09-12T14:32:16Z</time>
      </trkpt>
      <trkpt lat="48.37971" lon="2.67407">
        <ele>122</ele>
        <time>2021-09-12T14:32:21Z</time>
      </trkpt>
      <trkpt lat="48.37965" lon="2.67386">
        <ele>122</ele>
        <time>2021-09-12T14:32:26Z</time>
      </trkpt>
      <trkpt lat="48.37958" lon="2.67382">
        <ele>123</ele>
        <time>2021-09-12T14:32:31Z</time>
      </trkpt>
      <trkpt lat="48.37923" lon="2.67371">
        <ele>126</ele>
        <time>2021-09-12T14:32:36Z</time>
      </trkpt>
      <trkpt lat="48.37897" lon="2.6737">
        <ele>127</ele>
        <time>2021-09-12T14:32:41Z</time>
      </trkpt>
      <trkpt lat="48.37895" lon="2.67357">
        <ele>127</ele>
        <time>2021-09-12T14:32:46Z</time>
      </trkpt>
      <trkpt lat="48.37899" lon="2.67338">
        <ele>126</ele>
        <time>2021-09-12T14:32:51Z</time>
      </trkpt>
      <trkpt lat="48.37916" lon="2.6733">
        <ele>124</ele>
        <time>2021-09-12T14:32:56Z</time>
      </trkpt>
      <trkpt lat="48.37932" lon="2.67301">
        <ele>121</ele>
        <time>2021-09-12T14:33:01Z</time>
      </trkpt>
      <trkpt lat="48.37945" lon="2.67288">
        <ele>120</ele>
        <time>2021-09-12T14:33:06Z</time>
      </trkpt>
      <trkpt lat="48.37954" lon="2.6726">
        <ele>118</ele>
        <time>2021-09-12T14:33:11Z</time>
      </trkpt>
      <trkpt lat="48.37962" lon="2.67236">
        <ele>117</ele>
        <time>2021-09-12T14:33:16Z</time>
      </trkpt>
      <trkpt lat="48.37985" lon="2.67237">
        <ele>117</ele>
        <time>2021-09-12T14:33:21Z</time>
      </trkpt>
      <trkpt lat="48.37987" lon="2.67217">
        <ele>116</ele>
        <time>2021-09-12T14:33:26Z</time>
      </trkpt>
      <trkpt lat="48.37982" lon="2.67199">
        <ele>116</ele>
        <time>2021-09-12T14:33:31Z</time>
      </trkpt>
      <trkpt lat="48.37991" lon="2.67186">
        <ele>115</ele>
        <time>2021-09-12T14:33:36Z</time>
      </trkpt>
      <trkpt lat="48.3799" lon="2.67163">
        <ele>114</ele>
        <time>2021-09-12T14:33:41Z</time>
      </trkpt>
      <trkpt lat="48.37981" lon="2.67143">
        <ele>115</ele>
        <time>2021-09-12T14:33:46Z</time>
      </trkpt>
      <trkpt lat="48.37973" lon="2.67133">
        <ele>115</ele>
        <time>2021-09-12T14:33:51Z</time>
      </trkpt>
      <trkpt lat="48.37958" lon="2.67149">
        <ele>116</ele>
        <time>2021-09-12T14:33:56Z</time>
      </trkpt>
      <trkpt lat="48.37942" lon="2.67168">
        <ele>117</ele>
        <time>2021-09-12T14:34:01Z</time>
      </trkpt>
      <trkpt lat="48.3793" lon="2.67214">
        <ele>118</ele>
        <time>2021-09-12T14:34:06Z</time>
      </trkpt>
      <trkpt lat="48.37906" lon="2.6728">
        <ele>121</ele>
        <time>2021-09-12T14:34:11Z</time>
      </trkpt>
      <trkpt lat="48.37881" lon="2.67327">
        <ele>127</ele>
        <time>2021-09-12T14:34:16Z</time>
      </trkpt>
      <trkpt lat="48.37872" lon="2.67369">
        <ele>129</ele>
        <time>2021-09-12T14:34:21Z</time>
      </trkpt>
      <trkpt lat="48.3786" lon="2.67368">
        <ele>130</ele>
        <time>2021-09-12T14:34:26Z</time>
      </trkpt>
      <trkpt lat="48.37848" lon="2.67348">
        <ele>131</ele>
        <time>2021-09-12T14:34:31Z</time>
      </trkpt>
      <trkpt lat="48.37815" lon="2.67286">
        <ele>131</ele>
        <time>2021-09-12T14:34:36Z</time>
      </trkpt>
      <trkpt lat="48.37801" lon="2.67252">
        <ele>130</ele>
        <time>2021-09-12T14:34:41Z</time>
      </trkpt>
      <trkpt lat="48.37823" lon="2.67262">
        <ele>130</ele>
        <time>2021-09-12T14:34:46Z</time>
      </trkpt>
      <trkpt lat="48.37844" lon="2.67282">
        <ele>129</ele>
        <time>2021-09-12T14:34:51Z</time>
      </trkpt>
      <trkpt lat="48.37868" lon="2.67278">
        <ele>126</ele>
        <time>2021-09-12T14:34:56Z</time>
      </trkpt>
      <trkpt lat="48.37879" lon="2.67244">
        <ele>123</ele>
        <time>2021-09-12T14:35:01Z</time>
      </trkpt>
      <trkpt lat="48.3789" lon="2.67203">
        <ele>121</ele>
        <time>2021-09-12T14:35:06Z</time>
      </trkpt>
      <trkpt lat="48.37891" lon="2.67185">
        <ele>121</ele>
        <time>2021-09-12T14:35:11Z</time>
      </trkpt>
      <trkpt lat="48.37904" lon="2.67149">
        <ele>120</ele>
        <time>2021-09-12T14:35:16Z</time>
      </trkpt>
      <trkpt lat="48.37917" lon="2.67125">
        <ele>119</ele>
        <time>2021-09-12T14:35:21Z</time>
      </trkpt>
      <trkpt lat="48.37951" lon="2.67147">
        <ele>117</ele>
        <time>2021-09-12T14:35:26Z</time>
      </trkpt>
      <trkpt lat="48.37971" lon="2.67129">
        <ele>115</ele>
        <time>2021-09-12T14:35:31Z</time>
      </trkpt>
      <trkpt lat="48.37975" lon="2.67091">
        <ele>114</ele>
        <time>2021-09-12T14:35:36Z</time>
      </trkpt>
      <trkpt lat="48.37986" lon="2.67089">
        <ele>113</ele>
        <time>2021-09-12T14:35:41Z</time>
      </trkpt>
      <trkpt lat="48.37993" lon="2.67068">
        <ele>113</ele>
        <time>2021-09-12T14:35:46Z</time>
      </trkpt>
      <trkpt lat="48.37974" lon="2.67065">
        <ele>114</ele>
        <time>2021-09-12T14:35:51Z</time>
      </trkpt>
      <trkpt lat="48.37964" lon="2.67045">
        <ele>115</ele>
        <time>2021-09-12T14:35:56Z</time>
      </trkpt>
      <trkpt lat="48.37955" lon="2.67053">
        <ele>116</ele>
        <time>2021-09-12T14:36:01Z</time>
      </trkpt>
      <trkpt lat="48.37949" lon="2.67033">
        <ele>116</ele>
        <time>2021-09-12T14:36:06Z</time>
      </trkpt>
      <trkpt lat="48.37938" lon="2.67015">
        <ele>117</ele>
        <time>2021-09-12T14:36:11Z</time>
      </trkpt>
      <trkpt lat="48.37927" lon="2.67003">
        <ele>118</ele>
        <time>2021-09-12T14:36:16Z</time>
      </trkpt>
      <trkpt lat="48.37904" lon="2.67015">
        <ele>118</ele>
        <time>2021-09-12T14:36:21Z</time>
      </trkpt>
      <trkpt lat="48.37893" lon="2.67003">
        <ele>118</ele>
        <time>2021-09-12T14:36:26Z</time>
      </trkpt>
      <trkpt lat="48.37883" lon="2.66985">
        <ele>116</ele>
        <time>2021-09-12T14:36:31Z</time>
      </trkpt>
      <trkpt lat="48.3787" lon="2.67005">
        <ele>117</ele>
        <time>2021-09-12T14:36:36Z</time>
      </trkpt>
      <trkpt lat="48.37855" lon="2.67004">
        <ele>116</ele>
        <time>2021-09-12T14:36:41Z</time>
      </trkpt>
      <trkpt lat="48.37849" lon="2.66966">
        <ele>114</ele>
        <time>2021-09-12T14:36:46Z</time>
      </trkpt>
      <trkpt lat="48.37849" lon="2.66934">
        <ele>112</ele>
        <time>2021-09-12T14:36:51Z</time>
      </trkpt>
      <trkpt lat="48.37878" lon="2.66896">
        <ele>109</ele>
        <time>2021-09-12T14:36:56Z</time>
      </trkpt>
      <trkpt lat="48.37859" lon="2.6684">
        <ele>106</ele>
        <time>2021-09-12T14:37:01Z</time>
      </trkpt>
      <trkpt lat="48.37864" lon="2.6678">
        <ele>104</ele>
        <time>2021-09-12T14:37:06Z</time>
      </trkpt>
      <trkpt lat="48.37851" lon="2.66747">
        <ele>104</ele>
        <time>2021-09-12T14:37:11Z</time>
      </trkpt>
      <trkpt lat="48.37846" lon="2.66712">
        <ele>104</ele>
        <time>2021-09-12T14:37:16Z</time>
      </trkpt>
      <trkpt lat="48.37842" lon="2.66649">
        <ele>103</ele>
        <time>2021-09-12T14:37:21Z</time>
      </trkpt>
      <trkpt lat="48.37775" lon="2.66601">
        <ele>106</ele>
        <time>2021-09-12T14:37:26Z</time>
      </trkpt>
      <trkpt lat="48.37722" lon="2.66491">
        <ele>109</ele>
        <time>2021-09-12T14:37:31Z</time>
      </trkpt>
      <trkpt lat="48.376" lon="2.66367">
        <ele>111</ele>
        <time>2021-09-12T14:37:36Z</time>
      </trkpt>
      <trkpt lat="48.37688" lon="2.66335">
        <ele>112</ele>
        <time>2021-09-12T14:37:41Z</time>
      </trkpt>
      <trkpt lat="48.37762" lon="2.66211">
        <ele>125</ele>
        <time>2021-09-12T14:37:46Z</time>
      </trkpt>
      <trkpt lat="48.37795" lon="2.66028">
        <ele>122</ele>
        <time>2021-09-12T14:37:51Z</time>
      </trkpt>
      <trkpt lat="48.37826" lon="2.659">
        <ele>115</ele>
        <time>2021-09-12T14:37:56Z</time>
      </trkpt>
      <trkpt lat="48.37845" lon="2.65781">
        <ele>107</ele>
        <time>2021-09-12T14:38:01Z</time>
      </trkpt>
      <trkpt lat="48.37877" lon="2.65691">
        <ele>101</ele>
        <time>2021-09-12T14:38:06Z</time>
      </trkpt>
      <trkpt lat="48.37904" lon="2.65597">
        <ele>101</ele>
        <time>2021-09-12T14:38:11Z</time>
      </trkpt>
      <trkpt lat="48.37955" lon="2.6554">
        <ele>102</ele>
        <time>2021-09-12T14:38:16Z</time>
      </trkpt>
      <trkpt lat="48.37988" lon="2.6547">
        <ele>98</ele>
        <time>2021-09-12T14:38:21Z</time>
      </trkpt>
      <trkpt lat="48.38052" lon="2.65451">
        <ele>97</ele>
        <time>2021-09-12T14:38:26Z</time>
      </trkpt>
      <trkpt lat="48.38032" lon="2.6535">
        <ele>97</ele>
        <time>2021-09-12T14:38:31Z</time>
      </trkpt>
      <trkpt lat="48.38023" lon="2.65125">
        <ele>96</ele>
        <time>2021-09-12T14:38:36Z</time>
      </trkpt>
      <trkpt lat="48.38048" lon="2.65008">
        <ele>95</ele>
        <time>2021-09-12T14:38:41Z</time>
      </trkpt>
      <trkpt lat="48.38056" lon="2.64838">
        <ele>100</ele>
        <time>2021-09-12T14:38:46Z</time>
      </trkpt>
      <trkpt lat="48.38046" lon="2.64672">
        <ele>103</ele>
        <time>2021-09-12T14:38:51Z</time>
      </trkpt>
      <trkpt lat="48.38087" lon="2.64504">
        <ele>107</ele>
        <time>2021-09-12T14:38:56Z</time>
      </trkpt>
      <trkpt lat="48.38125" lon="2.64269">
        <ele>115</ele>
        <time>2021-09-12T14:39:01Z</time>
      </trkpt>
      <trkpt lat="48.3813" lon="2.64078">
        <ele>116</ele>
        <time>2021-09-12T14:39:06Z</time>
      </trkpt>
      <trkpt lat="48.38176" lon="2.64068">
        <ele>119</ele>
        <time>2021-09-12T14:39:11Z</time>
      </trkpt>
      <trkpt lat="48.38202" lon="2.64128">
        <ele>122</ele>
        <time>2021-09-12T14:39:16Z</time>
      </trkpt>
      <trkpt lat="48.38224" lon="2.64164">
        <ele>125</ele>
        <time>2021-09-12T14:39:21Z</time>
      </trkpt>
      <trkpt lat="48.38284" lon="2.64141">
        <ele>128</ele>
        <time>2021-09-12T14:39:26Z</time>
      </trkpt>
      <trkpt lat="48.38274" lon="2.64108">
        <ele>129</ele>
        <time>2021-09-12T14:39:31Z</time>
      </trkpt>
      <trkpt lat="48.38318" lon="2.64036">
        <ele>128</ele>
        <time>2021-09-12T14:39:36Z</time>
      </trkpt>
      <trkpt lat="48.38312" lon="2.63801">
        <ele>131</ele>
        <time>2021-09-12T14:39:41Z</time>
      </trkpt>
      <trkpt lat="48.38392" lon="2.63938">
        <ele>123</ele>
        <time>2021-09-12T14:39:46Z</time>
      </trkpt>
      <trkpt lat="48.38469" lon="2.64026">
        <ele>113</ele>
        <time>2021-09-12T14:39:51Z</time>
      </trkpt>
      <trkpt lat="48.38602" lon="2.6418">
        <ele>111</ele>
        <time>2021-09-12T14:39:56Z</time>
      </trkpt>
      <trkpt lat="48.38695" lon="2.63887">
        <ele>123</ele>
        <time>2021-09-12T14:40:01Z</time>
      </trkpt>
      <trkpt lat="48.38967" lon="2.64222">
        <ele>116</ele>
        <time>2021-09-12T14:40:06Z</time>
      </trkpt>
      <trkpt lat="48.38989" lon="2.64069">
        <ele>115</ele>
        <time>2021-09-12T14:40:11Z</time>
      </trkpt>
      <trkpt lat="48.39113" lon="2.64078">
        <ele>122</ele>
        <time>2021-09-12T14:40:16Z</time>
      </trkpt>
      <trkpt lat="48.3915" lon="2.64189">
        <ele>117</ele>
        <time>2021-09-12T14:40:21Z</time>
      </trkpt>
      <trkpt lat="48.3927" lon="2.64169">
        <ele>97</ele>
        <time>2021-09-12T14:40:26Z</time>
      </trkpt>
      <trkpt lat="48.39267" lon="2.64094">
        <ele>102</ele>
        <time>2021-09-12T14:40:31Z</time>
      </trkpt>
      <trkpt lat="48.3926" lon="2.63882">
        <ele>112</ele>
        <time>2021-09-12T14:40:36Z</time>
      </trkpt>
      <trkpt lat="48.39255" lon="2.63779">
        <ele>116</ele>
        <time>2021-09-12T14:40:41Z</time>
      </trkpt>
      <trkpt lat="48.39316" lon="2.63708">
        <ele>117</ele>
        <time>2021-09-12T14:40:46Z</time>
      </trkpt>
      <trkpt lat="48.39293" lon="2.63544">
        <ele>127</ele>
        <time>2021-09-12T14:40:51Z</time>
      </trkpt>
      <trkpt lat="48.39316" lon="2.63439">
        <ele>129</ele>
        <time>2021-09-12T14:40:56Z</time>
      </trkpt>
      <trkpt lat="48.39318" lon="2.63315">
        <ele>132</ele>
        <time>2021-09-12T14:41:01Z</time>
      </trkpt>
      <trkpt lat="48.39339" lon="2.63163">
        <ele>135</ele>
        <time>2021-09-12T14:41:06Z</time>
      </trkpt>
      <trkpt lat="48.3937" lon="2.63134">
        <ele>134</ele>
        <time>2021-09-12T14:41:11Z</time>
      </trkpt>
      <trkpt lat="48.39436" lon="2.63136">
        <ele>134</ele>
        <time>2021-09-12T14:41:16Z</time>
      </trkpt>
      <trkpt lat="48.39518" lon="2.63526">
        <ele>138</ele>
        <time>2021-09-12T14:41:21Z</time>
      </trkpt>
      <trkpt lat="48.39603" lon="2.63488">
        <ele>137</ele>
        <time>2021-09-12T14:41:26Z</time>
      </trkpt>
      <trkpt lat="48.39618" lon="2.6353">
        <ele>136</ele>
        <time>2021-09-12T14:41:31Z</time>
      </trkpt>
      <trkpt lat="48.3968" lon="2.63552">
        <ele>133</ele>
        <time>2021-09-12T14:41:36Z</time>
      </trkpt>
      <trkpt lat="48.39696" lon="2.63594">
        <ele>130</ele>
        <time>2021-09-12T14:41:41Z</time>
      </trkpt>
      <trkpt lat="48.39731" lon="2.63604">
        <ele>126</ele>
        <time>2021-09-12T14:41:46Z</time>
      </trkpt>
      <trkpt lat="48.39765" lon="2.63585">
        <ele>126</ele>
        <time>2021-09-12T14:41:51Z</time>
      </trkpt>
      <trkpt lat="48.3979" lon="2.63618">
        <ele>123</ele>
        <time>2021-09-12T14:41:56Z</time>
      </trkpt>
      <trkpt lat="48.39835" lon="2.63716">
        <ele>114</ele>
        <time>2021-09-12T14:42:01Z</time>
      </trkpt>
      <trkpt lat="48.39824" lon="2.63826">
        <ele>107</ele>
        <time>2021-09-12T14:42:06Z</time>
      </trkpt>
      <trkpt lat="48.39819" lon="2.63977">
        <ele>103</ele>
        <time>2021-09-12T14:42:11Z</time>
      </trkpt>
      <trkpt lat="48.39892" lon="2.63995">
        <ele>112</ele>
        <time>2021-09-12T14:42:16Z</time>
      </trkpt>
      <trkpt lat="48.39965" lon="2.64004">
        <ele>124</ele>
        <time>2021-09-12T14:42:21Z</time>
      </trkpt>
      <trkpt lat="48.4001" lon="2.63982">
        <ele>130</ele>
        <time>2021-09-12T14:42:26Z</time>
      </trkpt>
      <trkpt lat="48.40247" lon="2.63884">
        <ele>136</ele>
        <time>2021-09-12T14:42:31Z</time>
      </trkpt>
      <trkpt lat="48.40391" lon="2.6384">
        <ele>137</ele>
        <time>2021-09-12T14:42:36Z</time>
      </trkpt>
      <trkpt lat="48.40411" lon="2.63865">
        <ele>136</ele>
        <time>2021-09-12T14:42:41Z</time>
      </trkpt>
      <trkpt lat="48.40509" lon="2.63178">
        <ele>135</ele>
        <time>2021-09-12T14:42:46Z</time>
      </trkpt>
      <trkpt lat="48.40591" lon="2.63125">
        <ele>132</ele>
        <time>2021-09-12T14:42:51Z</time>
      </trkpt>
      <trkpt lat="48.40574" lon="2.63349">
        <ele>135</ele>
        <time>2021-09-12T14:42:56Z</time>
      </trkpt>
      <trkpt lat="48.4055" lon="2.63398">
        <ele>135</ele>
        <time>2021-09-12T14:43:01Z</time>
      </trkpt>
      <trkpt lat="48.40542" lon="2.63538">
        <ele>137</ele>
        <time>2021-09-12T14:43:06Z</time>
      </trkpt>
      <trkpt lat="48.40585" lon="2.63598">
        <ele>136</ele>
        <time>2021-09-12T14:43:11Z</time>
      </trkpt>
      <trkpt lat="48.40572" lon="2.63706">
        <ele>136</ele>
        <time>2021-09-12T14:43:16Z</time>
      </trkpt>
      <trkpt lat="48.40566" lon="2.63806">
        <ele>135</ele>
        <time>2021-09-12T14:43:21Z</time>
      </trkpt>
      <trkpt lat="48.40593" lon="2.63926">
        <ele>134</ele>
        <time>2021-09-12T14:43:26Z</time>
      </trkpt>
      <trkpt lat="48.40625" lon="2.64042">
        <ele>135</ele>
        <time>2021-09-12T14:43:31Z</time>
      </trkpt>
      <trkpt lat="48.40647" lon="2.64251">
        <ele>136</ele>
        <time>2021-09-12T14:43:36Z</time>
      </trkpt>
      <trkpt lat="48.40629" lon="2.64272">
        <ele>135</ele>
        <time>2021-09-12T14:43:41Z</time>
      </trkpt>
      <trkpt lat="48.40628" lon="2.644">
        <ele>131</ele>
        <time>2021-09-12T14:43:46Z</time>
      </trkpt>
      <trkpt lat="48.40594" lon="2.64477">
        <ele>128</ele>
        <time>2021-09-12T14:43:51Z</time>
      </trkpt>
      <trkpt lat="48.40613" lon="2.64621">
        <ele>125</ele>
        <time>2021-09-12T14:43:56Z</time>
      </trkpt>
      <trkpt lat="48.40585" lon="2.64797">
        <ele>118</ele>
        <time>2021-09-12T14:44:01Z</time>
      </trkpt>
      <trkpt lat="48.4045" lon="2.64741">
        <ele>128</ele>
        <time>2021-09-12T14:44:06Z</time>
      </trkpt>
      <trkpt lat="48.40377" lon="2.64639">
        <ele>127</ele>
        <time>2021-09-12T14:44:11Z</time>
      </trkpt>
      <trkpt lat="48.40365" lon="2.64602">
        <ele>125</ele>
        <time>2021-09-12T14:44:16Z</time>
      </trkpt>
      <trkpt lat="48.40372" lon="2.64556">
        <ele>126</ele>
        <time>2021-09-12T14:44:21Z</time>
      </trkpt>
      <trkpt lat="48.40352" lon="2.64538">
        <ele>123</ele>
        <time>2021-09-12T14:44:26Z</time>
      </trkpt>
      <trkpt lat="48.40314" lon="2.64538">
        <ele>121</ele>
        <time>2021-09-12T14:44:31Z</time>
      </trkpt>
      <trkpt lat="48.40283" lon="2.64472">
        <ele>124</ele>
        <time>2021-09-12T14:44:36Z</time>
      </trkpt>
      <trkpt lat="48.40268" lon="2.64462">
        <ele>126</ele>
        <time>2021-09-12T14:44:41Z</time>
      </trkpt>
      <trkpt lat="48.40239" lon="2.64465">
        <ele>129</ele>
        <time>2021-09-12T14:44:46Z</time>
      </trkpt>
      <trkpt lat="48.40229" lon="2.64546">
        <ele>127</ele>
        <time>2021-09-12T14:44:51Z</time>
      </trkpt>
      <trkpt lat="48.40207" lon="2.64614">
        <ele>128</ele>
        <time>2021-09-12T14:44:56Z</time>
      </trkpt>
      <trkpt lat="48.40154" lon="2.64711">
        <ele>131</ele>
        <time>2021-09-12T14:45:01Z</time>
      </trkpt>
      <trkpt lat="48.40128" lon="2.64757">
        <ele>131</ele>
        <time>2021-09-12T14:45:06Z</time>
      </trkpt>
      <trkpt lat="48.40116" lon="2.64847">
        <ele>132</ele>
        <time>2021-09-12T14:45:11Z</time>
      </trkpt>
      <trkpt lat="48.40118" lon="2.64904">
        <ele>130</ele>
        <time>2021-09-12T14:45:16Z</time>
      </trkpt>
      <trkpt lat="48.4011" lon="2.64948">
        <ele>129</ele>
        <time>2021-09-12T14:45:21Z</time>
      </trkpt>
      <trkpt lat="48.4009" lon="2.6496">
        <ele>131</ele>
        <time>2021-09-12T14:45:26Z</time>
      </trkpt>
      <trkpt lat="48.40103" lon="2.65034">
        <ele>126</ele>
        <time>2021-09-12T14:45:31Z</time>
      </trkpt>
      <trkpt lat="48.40089" lon="2.65103">
        <ele>126</ele>
        <time>2021-09-12T14:45:36Z</time>
      </trkpt>
      <trkpt lat="48.40057" lon="2.65111">
        <ele>127</ele>
        <time>2021-09-12T14:45:41Z</time>
      </trkpt>
      <trkpt lat="48.4007" lon="2.65174">
        <ele>125</ele>
        <time>2021-09-12T14:45:46Z</time>
      </trkpt>
      <trkpt lat="48.40046" lon="2.65235">
        <ele>125</ele>
        <time>2021-09-12T14:45:51Z</time>
      </trkpt>
      <trkpt lat="48.40038" lon="2.65293">
        <ele>125</ele>
        <time>2021-09-12T14:45:56Z</time>
      </trkpt>
      <trkpt lat="48.40025" lon="2.65416">
        <ele>121</ele>
        <time>2021-09-12T14:46:01Z</time>
      </trkpt>
      <trkpt lat="48.39999" lon="2.65462">
        <ele>122</ele>
        <time>2021-09-12T14:46:06Z</time>
      </trkpt>
      <trkpt lat="48.39988" lon="2.65507">
        <ele>118</ele>
        <time>2021-09-12T14:46:11Z</time>
      </trkpt>
      <trkpt lat="48.40004" lon="2.65553">
        <ele>117</ele>
        <time>2021-09-12T14:46:16Z</time>
      </trkpt>
      <trkpt lat="48.40026" lon="2.65542">
        <ele>115</ele>
        <time>2021-09-12T14:46:21Z</time>
      </trkpt>
      <trkpt lat="48.40052" lon="2.65557">
        <ele>110</ele>
        <time>2021-09-12T14:46:26Z</time>
      </trkpt>
      <trkpt lat="48.40083" lon="2.65545">
        <ele>107</ele>
        <time>2021-09-12T14:46:31Z</time>
      </trkpt>
      <trkpt lat="48.40115" lon="2.65521">
        <ele>103</ele>
        <time>2021-09-12T14:46:36Z</time>
      </trkpt>
      <trkpt lat="48.40153" lon="2.65436">
        <ele>101</ele>
        <time>2021-09-12T14:46:41Z</time>
      </trkpt>
      <trkpt lat="48.40201" lon="2.6537">
        <ele>104</ele>
        <time>2021-09-12T14:46:46Z</time>
      </trkpt>
      <trkpt lat="48.40258" lon="2.65372">
        <ele>108</ele>
        <time>2021-09-12T14:46:51Z</time>
      </trkpt>
      <trkpt lat="48.403" lon="2.65275">
        <ele>104</ele>
        <time>2021-09-12T14:46:56Z</time>
      </trkpt>
      <trkpt lat="48.4032" lon="2.65185">
        <ele>103</ele>
        <time>2021-09-12T14:47:01Z</time>
      </trkpt>
      <trkpt lat="48.40362" lon="2.65193">
        <ele>103</ele>
        <time>2021-09-12T14:47:06Z</time>
      </trkpt>
      <trkpt lat="48.40415" lon="2.65134">
        <ele>102</ele>
        <time>2021-09-12T14:47:11Z</time>
      </trkpt>
      <trkpt lat="48.40459" lon="2.65126">
        <ele>106</ele>
        <time>2021-09-12T14:47:16Z</time>
      </trkpt>
      <trkpt lat="48.40466" lon="2.65086">
        <ele>107</ele>
        <time>2021-09-12T14:47:21Z</time>
      </trkpt>
      <trkpt lat="48.40494" lon="2.65048">
        <ele>109</ele>
        <time>2021-09-12T14:47:26Z</time>
      </trkpt>
      <trkpt lat="48.40505" lon="2.65021">
        <ele>110</ele>
        <time>2021-09-12T14:47:31Z</time>
      </trkpt>
      <trkpt lat="48.40523" lon="2.65004">
        <ele>111</ele>
        <time>2021-09-12T14:47:36Z</time>
      </trkpt>
      <trkpt lat="48.40547" lon="2.65068">
        <ele>113</ele>
        <time>2021-09-12T14:47:41Z</time>
      </trkpt>
      <trkpt lat="48.40542" lon="2.65117">
        <ele>113</ele>
        <time>2021-09-12T14:47:46Z</time>
      </trkpt>
      <trkpt lat="48.40539" lon="2.6515">
        <ele>112</ele>
        <time>2021-09-12T14:47:51Z</time>
      </trkpt>
      <trkpt lat="48.40546" lon="2.6517">
        <ele>113</ele>
        <time>2021-09-12T14:47:56Z</time>
      </trkpt>
      <trkpt lat="48.40567" lon="2.65226">
        <ele>116</ele>
        <time>2021-09-12T14:48:01Z</time>
      </trkpt>
      <trkpt lat="48.40551" lon="2.65248">
        <ele>115</ele>
        <time>2021-09-12T14:48:06Z</time>
      </trkpt>
      <trkpt lat="48.40561" lon="2.65283">
        <ele>116</ele>
        <time>2021-09-12T14:48:11Z</time>
      </trkpt>
      <trkpt lat="48.40569" lon="2.65318">
        <ele>116</ele>
        <time>2021-09-12T14:48:16Z</time>
      </trkpt>
      <trkpt lat="48.40588" lon="2.65341">
        <ele>117</ele>
        <time>2021-09-12T14:48:21Z</time>
      </trkpt>
      <trkpt lat="48.40595" lon="2.65395">
        <ele>117</ele>
        <time>2021-09-12T14:48:26Z</time>
      </trkpt>
      <trkpt lat="48.40588" lon="2.65446">
        <ele>119</ele>
        <time>2021-09-12T14:48:31Z</time>
      </trkpt>
      <trkpt lat="48.40541" lon="2.65444">
        <ele>114</ele>
        <time>2021-09-12T14:48:36Z</time>
      </trkpt>
      <trkpt lat="48.40467" lon="2.65464">
        <ele>106</ele>
        <time>2021-09-12T14:48:41Z</time>
      </trkpt>
      <trkpt lat="48.40457" lon="2.65441">
        <ele>103</ele>
        <time>2021-09-12T14:48:46Z</time>
      </trkpt>
      <trkpt lat="48.40431" lon="2.65466">
        <ele>100</ele>
        <time>2021-09-12T14:48:51Z</time>
      </trkpt>
      <trkpt lat="48.40415" lon="2.65536">
        <ele>99</ele>
        <time>2021-09-12T14:48:56Z</time>
      </trkpt>
      <trkpt lat="48.40423" lon="2.65613">
        <ele>100</ele>
        <time>2021-09-12T14:49:01Z</time>
      </trkpt>
      <trkpt lat="48.40485" lon="2.65724">
        <ele>104</ele>
        <time>2021-09-12T14:49:06Z</time>
      </trkpt>
      <trkpt lat="48.4048" lon="2.65826">
        <ele>102</ele>
        <time>2021-09-12T14:49:11Z</time>
      </trkpt>
      <trkpt lat="48.40471" lon="2.65833">
        <ele>101</ele>
        <time>2021-09-12T14:49:16Z</time>
      </trkpt>
      <trkpt lat="48.40454" lon="2.65801">
        <ele>101</ele>
        <time>2021-09-12T14:49:21Z</time>
      </trkpt>
      <trkpt lat="48.4043" lon="2.65804">
        <ele>100</ele>
        <time>2021-09-12T14:49:26Z</time>
      </trkpt>
      <trkpt lat="48.40457" lon="2.65837">
        <ele>101</ele>
        <time>2021-09-12T14:49:31Z</time>
      </trkpt>
      <trkpt lat="48.40433" lon="2.65863">
        <ele>100</ele>
        <time>2021-09-12T14:49:36Z</time>
      </trkpt>
      <trkpt lat="48.40425" lon="2.6594">
        <ele>101</ele>
        <time>2021-09-12T14:49:41Z</time>
      </trkpt>
      <trkpt lat="48.40448" lon="2.65968">
        <ele>102</ele>
        <time>2021-09-12T14:49:46Z</time>
      </trkpt>
      <trkpt lat="48.40449" lon="2.66018">
        <ele>102</ele>
        <time>2021-09-12T14:49:51Z</time>
      </trkpt>
      <trkpt lat="48.40413" lon="2.66068">
        <ele>101</ele>
        <time>2021-09-12T14:49:56Z</time>
      </trkpt>
      <trkpt lat="48.40374" lon="2.6606">
        <ele>98</ele>
        <time>2021-09-12T14:50:01Z</time>
      </trkpt>
      <trkpt lat="48.40358" lon="2.66096">
        <ele>98</ele>
        <time>2021-09-12T14:50:06Z</time>
      </trkpt>
      <trkpt lat="48.40313" lon="2.66206">
        <ele>101</ele>
        <time>2021-09-12T14:50:11Z</time>
      </trkpt>
      <trkpt lat="48.40249" lon="2.66261">
        <ele>106</ele>
        <time>2021-09-12T14:50:16Z</time>
      </trkpt>
      <trkpt lat="48.40202" lon="2.66311">
        <ele>107</ele>
        <time>2021-09-12T14:50:21Z</time>
      </trkpt>
      <trkpt lat="48.40185" lon="2.66389">
        <ele>109</ele>
        <time>2021-09-12T14:50:26Z</time>
      </trkpt>
      <trkpt lat="48.40198" lon="2.66464">
        <ele>110</ele>
        <time>2021-09-12T14:50:31Z</time>
      </trkpt>
      <trkpt lat="48.402" lon="2.66539">
        <ele>108</ele>
        <time>2021-09-12T14:50:36Z</time>
      </trkpt>
      <trkpt lat="48.40225" lon="2.66533">
        <ele>111</ele>
        <time>2021-09-12T14:50:41Z</time>
      </trkpt>
      <trkpt lat="48.4024" lon="2.66493">
        <ele>115</ele>
        <time>2021-09-12T14:50:46Z</time>
      </trkpt>
      <trkpt lat="48.40255" lon="2.66435">
        <ele>117</ele>
        <time>2021-09-12T14:50:51Z</time>
      </trkpt>
      <trkpt lat="48.40299" lon="2.66417">
        <ele>115</ele>
        <time>2021-09-12T14:50:56Z</time>
      </trkpt>
      <trkpt lat="48.40334" lon="2.66387">
        <ele>113</ele>
        <time>2021-09-12T14:51:01Z</time>
      </trkpt>
      <trkpt lat="48.40355" lon="2.66402">
        <ele>114</ele>
        <time>2021-09-12T14:51:06Z</time>
      </trkpt>
      <trkpt lat="48.40386" lon="2.66424">
        <ele>115</ele>
        <time>2021-09-12T14:51:11Z</time>
      </trkpt>
      <trkpt lat="48.40453" lon="2.6644">
        <ele>115</ele>
        <time>2021-09-12T14:51:16Z</time>
      </trkpt>
      <trkpt lat="48.40493" lon="2.66424">
        <ele>119</ele>
        <time>2021-09-12T14:51:21Z</time>
      </trkpt>
      <trkpt lat="48.4052" lon="2.66324">
        <ele>122</ele>
        <time>2021-09-12T14:51:26Z</time>
      </trkpt>
      <trkpt lat="48.40491" lon="2.66287">
        <ele>123</ele>
        <time>2021-09-12T14:51:31Z</time>
      </trkpt>
      <trkpt lat="48.40469" lon="2.66318">
        <ele>123</ele>
        <time>2021-09-12T14:51:36Z</time>
      </trkpt>
      <trkpt lat="48.40475" lon="2.66383">
        <ele>122</ele>
        <time>2021-09-12T14:51:41Z</time>
      </trkpt>
      <trkpt lat="48.40448" lon="2.66401">
        <ele>120</ele>
        <time>2021-09-12T14:51:46Z</time>
      </trkpt>
      <trkpt lat="48.40439" lon="2.66335">
        <ele>123</ele>
        <time>2021-09-12T14:51:51Z</time>
      </trkpt>
      <trkpt lat="48.40445" lon="2.66268">
        <ele>117</ele>
        <time>2021-09-12T14:51:56Z</time>
      </trkpt>
      <trkpt lat="48.40487" lon="2.66231">
        <ele>117</ele>
        <time>2021-09-12T14:52:01Z</time>
      </trkpt>
      <trkpt lat="48.40513" lon="2.66254">
        <ele>119</ele>
        <time>2021-09-12T14:52:06Z</time>
      </trkpt>
      <trkpt lat="48.40538" lon="2.66276">
        <ele>117</ele>
        <time>2021-09-12T14:52:11Z</time>
      </trkpt>
      <trkpt lat="48.40531" lon="2.66451">
        <ele>112</ele>
        <time>2021-09-12T14:52:16Z</time>
      </trkpt>
      <trkpt lat="48.40488" lon="2.6653">
        <ele>102</ele>
        <time>2021-09-12T14:52:21Z</time>
      </trkpt>
      <trkpt lat="48.40479" lon="2.66604">
        <ele>98</ele>
        <time>2021-09-12T14:52:26Z</time>
      </trkpt>
      <trkpt lat="48.40486" lon="2.66732">
        <ele>96</ele>
        <time>2021-09-12T14:52:31Z</time>
      </trkpt>
      <trkpt lat="48.40496" lon="2.66822">
        <ele>94</ele>
        <time>2021-09-12T14:52:36Z</time>
      </trkpt>
      <trkpt lat="48.40491" lon="2.67039">
        <ele>91</ele>
        <time>2021-09-12T14:52:41Z</time>
      </trkpt>
      <trkpt lat="48.40516" lon="2.67264">
        <ele>87</ele>
        <time>2021-09-12T14:52:46Z</time>
      </trkpt>
      <trkpt lat="48.40531" lon="2.67449">
        <ele>85</ele>
        <time>2021-09-12T14:52:51Z</time>
      </trkpt>
      <trkpt lat="48.40484" lon="2.67436">
        <ele>84</ele>
        <time>2021-09-12T14:52:56Z</time>
      </trkpt>
      <trkpt lat="48.40456" lon="2.67481">
        <ele>83</ele>
        <time>2021-09-12T14:53:01Z</time>
      </trkpt>
      <trkpt lat="48.40445" lon="2.67475">
        <ele>83</ele>
        <time>2021-09-12T14:53:06Z</time>
      </trkpt>
      <trkpt lat="48.40465" lon="2.6753">
        <ele>84</ele>
        <time>2021-09-12T14:53:11Z</time>
      </trkpt>
      <trkpt lat="48.40478" lon="2.67617">
        <ele>84</ele>
        <time>2021-09-12T14:53:16Z</time>
      </trkpt>
      <trkpt lat="48.40476" lon="2.67656">
        <ele>83</ele>
        <time>2021-09-12T14:53:21Z</time>
      </trkpt>
      <trkpt lat="48.40424" lon="2.67657">
        <ele>81</ele>
        <time>2021-09-12T14:53:26Z</time>
      </trkpt>
      <trkpt lat="48.4039" lon="2.67731">
        <ele>81</ele>
        <time>2021-09-12T14:53:31Z</time>
      </trkpt>
      <trkpt lat="48.40408" lon="2.67816">
        <ele>82</ele>
        <time>2021-09-12T14:53:36Z</time>
      </trkpt>
      <trkpt lat="48.40392" lon="2.67809">
        <ele>82</ele>
        <time>2021-09-12T14:53:41Z</time>
      </trkpt>
    </trkseg>
  </trk>
</gpx>